sensor_id;sensor_type;location;lat;lon;timestamp;P1;durP1;ratioP1;P2;durP2;ratioP2
66761;SDS011;53672;48.176;16.338;2022-08-19T00:03:06;6.93;;;3.30;;
66761;SDS011;53672;48.176;16.338;2022-08-19T00:08:08;6.73;;;3.20;;
66761;SDS011;53672;48.176;16.338;2022-08-19T00:13:09;7.47;;;3.10;;
66761;SDS011;53672;48.176;16.338;2022-08-19T00:18:09;8.50;;;3.40;;
66761;SDS011;53672;48.176;16.338;2022-08-19T00:23:11;7.25;;;3.63;;
66761;SDS011;53672;48.176;16.338;2022-08-19T00:28:11;8.82;;;3.70;;
66761;SDS011;53672;48.176;16.338;2022-08-19T00:33:12;8.47;;;3.37;;
66761;SDS011;53672;48.176;16.338;2022-08-19T00:38:14;8.13;;;3.30;;
66761;SDS011;53672;48.176;16.338;2022-08-19T00:43:14;7.30;;;3.17;;
66761;SDS011;53672;48.176;16.338;2022-08-19T00:48:19;6.45;;;3.20;;
66761;SDS011;53672;48.176;16.338;2022-08-19T00:53:23;9.60;;;3.30;;
66761;SDS011;53672;48.176;16.338;2022-08-19T00:58:27;10.98;;;3.50;;
66761;SDS011;53672;48.176;16.338;2022-08-19T01:03:32;7.43;;;3.30;;
66761;SDS011;53672;48.176;16.338;2022-08-19T01:08:34;8.90;;;3.30;;
66761;SDS011;53672;48.176;16.338;2022-08-19T01:13:35;11.03;;;3.47;;
66761;SDS011;53672;48.176;16.338;2022-08-19T01:18:38;6.70;;;3.20;;
66761;SDS011;53672;48.176;16.338;2022-08-19T01:23:42;8.70;;;3.40;;
66761;SDS011;53672;48.176;16.338;2022-08-19T01:28:43;8.15;;;3.00;;
66761;SDS011;53672;48.176;16.338;2022-08-19T01:33:46;8.48;;;3.50;;
66761;SDS011;53672;48.176;16.338;2022-08-19T01:38:48;6.87;;;3.13;;
66761;SDS011;53672;48.176;16.338;2022-08-19T01:43:48;8.77;;;3.25;;
66761;SDS011;53672;48.176;16.338;2022-08-19T01:48:49;8.85;;;3.25;;
66761;SDS011;53672;48.176;16.338;2022-08-19T01:53:51;9.03;;;3.27;;
66761;SDS011;53672;48.176;16.338;2022-08-19T01:58:53;7.15;;;3.05;;
66761;SDS011;53672;48.176;16.338;2022-08-19T02:03:57;6.20;;;2.70;;
66761;SDS011;53672;48.176;16.338;2022-08-19T02:08:59;8.13;;;3.20;;
66761;SDS011;53672;48.176;16.338;2022-08-19T02:14:00;9.57;;;3.10;;
66761;SDS011;53672;48.176;16.338;2022-08-19T02:19:03;8.57;;;3.03;;
66761;SDS011;53672;48.176;16.338;2022-08-19T02:24:05;7.73;;;2.77;;
66761;SDS011;53672;48.176;16.338;2022-08-19T02:29:06;13.05;;;3.13;;
66761;SDS011;53672;48.176;16.338;2022-08-19T02:34:06;9.47;;;3.00;;
66761;SDS011;53672;48.176;16.338;2022-08-19T02:39:08;7.17;;;3.17;;
66761;SDS011;53672;48.176;16.338;2022-08-19T02:44:09;9.82;;;2.88;;
66761;SDS011;53672;48.176;16.338;2022-08-19T02:49:09;9.90;;;3.63;;
66761;SDS011;53672;48.176;16.338;2022-08-19T02:54:11;10.50;;;3.90;;
66761;SDS011;53672;48.176;16.338;2022-08-19T02:59:12;11.50;;;4.15;;
66761;SDS011;53672;48.176;16.338;2022-08-19T03:04:14;9.52;;;4.32;;
66761;SDS011;53672;48.176;16.338;2022-08-19T03:09:17;10.53;;;4.80;;
66761;SDS011;53672;48.176;16.338;2022-08-19T03:14:19;9.30;;;4.90;;
66761;SDS011;53672;48.176;16.338;2022-08-19T03:19:20;8.10;;;4.00;;
66761;SDS011;53672;48.176;16.338;2022-08-19T03:24:22;9.97;;;4.63;;
66761;SDS011;53672;48.176;16.338;2022-08-19T03:29:23;10.80;;;4.93;;
66761;SDS011;53672;48.176;16.338;2022-08-19T03:34:26;11.48;;;5.25;;
66761;SDS011;53672;48.176;16.338;2022-08-19T03:39:29;12.10;;;4.97;;
66761;SDS011;53672;48.176;16.338;2022-08-19T03:44:29;11.32;;;4.50;;
66761;SDS011;53672;48.176;16.338;2022-08-19T03:49:31;8.17;;;4.57;;
66761;SDS011;53672;48.176;16.338;2022-08-19T03:54:34;11.23;;;4.85;;
66761;SDS011;53672;48.176;16.338;2022-08-19T03:59:35;9.32;;;4.82;;
66761;SDS011;53672;48.176;16.338;2022-08-19T04:04:37;10.90;;;5.07;;
66761;SDS011;53672;48.176;16.338;2022-08-19T04:09:40;8.95;;;4.80;;
66761;SDS011;53672;48.176;16.338;2022-08-19T04:14:41;9.60;;;5.33;;
66761;SDS011;53672;48.176;16.338;2022-08-19T04:19:41;9.33;;;4.97;;
66761;SDS011;53672;48.176;16.338;2022-08-19T04:24:43;9.40;;;5.50;;
66761;SDS011;53672;48.176;16.338;2022-08-19T04:29:43;9.98;;;5.53;;
66761;SDS011;53672;48.176;16.338;2022-08-19T04:34:44;9.87;;;5.77;;
66761;SDS011;53672;48.176;16.338;2022-08-19T04:39:46;11.23;;;5.50;;
66761;SDS011;53672;48.176;16.338;2022-08-19T04:44:46;12.65;;;5.00;;
66761;SDS011;53672;48.176;16.338;2022-08-19T04:49:47;10.07;;;4.63;;
66761;SDS011;53672;48.176;16.338;2022-08-19T04:54:48;9.10;;;4.20;;
66761;SDS011;53672;48.176;16.338;2022-08-19T04:59:49;10.77;;;4.78;;
66761;SDS011;53672;48.176;16.338;2022-08-19T05:04:55;11.43;;;4.10;;
66761;SDS011;53672;48.176;16.338;2022-08-19T05:09:58;12.23;;;4.60;;
66761;SDS011;53672;48.176;16.338;2022-08-19T05:14:58;12.70;;;4.95;;
66761;SDS011;53672;48.176;16.338;2022-08-19T05:19:59;13.90;;;5.50;;
66761;SDS011;53672;48.176;16.338;2022-08-19T05:25:02;10.20;;;5.90;;
66761;SDS011;53672;48.176;16.338;2022-08-19T05:30:05;12.48;;;7.03;;
66761;SDS011;53672;48.176;16.338;2022-08-19T05:35:06;14.47;;;8.30;;
66761;SDS011;53672;48.176;16.338;2022-08-19T05:40:09;12.93;;;7.30;;
66761;SDS011;53672;48.176;16.338;2022-08-19T05:45:10;12.25;;;6.95;;
66761;SDS011;53672;48.176;16.338;2022-08-19T05:50:11;12.10;;;7.07;;
66761;SDS011;53672;48.176;16.338;2022-08-19T05:55:13;12.40;;;7.70;;
66761;SDS011;53672;48.176;16.338;2022-08-19T06:00:13;12.77;;;7.22;;
66761;SDS011;53672;48.176;16.338;2022-08-19T06:05:14;14.40;;;7.72;;
66761;SDS011;53672;48.176;16.338;2022-08-19T06:10:16;12.07;;;8.10;;
66761;SDS011;53672;48.176;16.338;2022-08-19T06:15:17;13.60;;;7.20;;
66761;SDS011;53672;48.176;16.338;2022-08-19T06:20:17;12.73;;;8.30;;
66761;SDS011;53672;48.176;16.338;2022-08-19T06:25:19;14.73;;;8.00;;
66761;SDS011;53672;48.176;16.338;2022-08-19T06:30:20;13.52;;;8.40;;
66761;SDS011;53672;48.176;16.338;2022-08-19T06:35:20;15.13;;;8.30;;
66761;SDS011;53672;48.176;16.338;2022-08-19T06:40:22;13.00;;;7.50;;
66761;SDS011;53672;48.176;16.338;2022-08-19T06:45:23;12.43;;;7.38;;
66761;SDS011;53672;48.176;16.338;2022-08-19T06:50:24;11.52;;;6.93;;
66761;SDS011;53672;48.176;16.338;2022-08-19T06:55:26;13.13;;;7.43;;
66761;SDS011;53672;48.176;16.338;2022-08-19T07:00:26;11.13;;;6.90;;
66761;SDS011;53672;48.176;16.338;2022-08-19T07:05:26;12.63;;;7.53;;
66761;SDS011;53672;48.176;16.338;2022-08-19T07:10:28;10.80;;;7.15;;
66761;SDS011;53672;48.176;16.338;2022-08-19T07:15:29;10.50;;;6.70;;
66761;SDS011;53672;48.176;16.338;2022-08-19T07:20:29;11.80;;;7.20;;
66761;SDS011;53672;48.176;16.338;2022-08-19T07:25:31;12.23;;;7.17;;
66761;SDS011;53672;48.176;16.338;2022-08-19T07:30:32;10.10;;;6.32;;
66761;SDS011;53672;48.176;16.338;2022-08-19T07:35:32;9.30;;;6.30;;
66761;SDS011;53672;48.176;16.338;2022-08-19T07:40:34;10.57;;;6.40;;
66761;SDS011;53672;48.176;16.338;2022-08-19T07:45:34;11.32;;;6.85;;
66761;SDS011;53672;48.176;16.338;2022-08-19T07:50:35;12.17;;;6.73;;
66761;SDS011;53672;48.176;16.338;2022-08-19T07:55:37;10.83;;;6.47;;
66761;SDS011;53672;48.176;16.338;2022-08-19T08:00:37;10.52;;;6.10;;
66761;SDS011;53672;48.176;16.338;2022-08-19T08:05:39;11.00;;;6.47;;
66761;SDS011;53672;48.176;16.338;2022-08-19T08:10:41;12.60;;;6.88;;
66761;SDS011;53672;48.176;16.338;2022-08-19T08:15:41;11.70;;;7.05;;
66761;SDS011;53672;48.176;16.338;2022-08-19T08:20:42;9.70;;;6.17;;
66761;SDS011;53672;48.176;16.338;2022-08-19T08:25:44;10.17;;;6.33;;
66761;SDS011;53672;48.176;16.338;2022-08-19T08:30:44;11.00;;;6.47;;
66761;SDS011;53672;48.176;16.338;2022-08-19T08:35:45;10.32;;;6.05;;
66761;SDS011;53672;48.176;16.338;2022-08-19T08:40:47;11.20;;;6.03;;
66761;SDS011;53672;48.176;16.338;2022-08-19T08:45:51;11.23;;;6.10;;
66761;SDS011;53672;48.176;16.338;2022-08-19T08:50:55;9.93;;;6.45;;
66761;SDS011;53672;48.176;16.338;2022-08-19T08:56:00;8.23;;;5.93;;
66761;SDS011;53672;48.176;16.338;2022-08-19T09:01:03;14.25;;;9.70;;
66761;SDS011;53672;48.176;16.338;2022-08-19T09:06:04;10.67;;;5.93;;
66761;SDS011;53672;48.176;16.338;2022-08-19T09:11:12;10.75;;;6.70;;
66761;SDS011;53672;48.176;16.338;2022-08-19T09:16:20;8.07;;;6.03;;
66761;SDS011;53672;48.176;16.338;2022-08-19T09:21:21;9.63;;;5.95;;
66761;SDS011;53672;48.176;16.338;2022-08-19T09:26:23;9.03;;;6.07;;
66761;SDS011;53672;48.176;16.338;2022-08-19T09:31:25;9.93;;;5.80;;
66761;SDS011;53672;48.176;16.338;2022-08-19T09:36:27;9.73;;;6.38;;
66761;SDS011;53672;48.176;16.338;2022-08-19T09:41:29;10.90;;;5.80;;
66761;SDS011;53672;48.176;16.338;2022-08-19T09:46:30;10.20;;;6.73;;
66761;SDS011;53672;48.176;16.338;2022-08-19T09:51:30;9.50;;;5.63;;
66761;SDS011;53672;48.176;16.338;2022-08-19T09:56:32;9.38;;;6.00;;
66761;SDS011;53672;48.176;16.338;2022-08-19T10:01:33;12.27;;;6.13;;
66761;SDS011;53672;48.176;16.338;2022-08-19T10:06:34;10.40;;;5.60;;
66761;SDS011;53672;48.176;16.338;2022-08-19T10:11:39;11.77;;;5.65;;
66761;SDS011;53672;48.176;16.338;2022-08-19T10:16:40;13.50;;;6.63;;
66761;SDS011;53672;48.176;16.338;2022-08-19T10:21:41;11.02;;;6.03;;
66761;SDS011;53672;48.176;16.338;2022-08-19T10:26:42;11.90;;;5.97;;
66761;SDS011;53672;48.176;16.338;2022-08-19T10:31:43;10.30;;;6.10;;
66761;SDS011;53672;48.176;16.338;2022-08-19T10:36:43;10.23;;;5.70;;
66761;SDS011;53672;48.176;16.338;2022-08-19T10:41:45;10.40;;;5.43;;
66761;SDS011;53672;48.176;16.338;2022-08-19T10:46:46;11.43;;;5.90;;
66761;SDS011;53672;48.176;16.338;2022-08-19T10:51:46;13.10;;;6.40;;
66761;SDS011;53672;48.176;16.338;2022-08-19T10:56:48;12.80;;;6.13;;
66761;SDS011;53672;48.176;16.338;2022-08-19T11:01:49;10.23;;;5.72;;
66761;SDS011;53672;48.176;16.338;2022-08-19T11:06:50;12.20;;;6.03;;
66761;SDS011;53672;48.176;16.338;2022-08-19T11:11:52;12.37;;;5.90;;
66761;SDS011;53672;48.176;16.338;2022-08-19T11:16:53;12.65;;;5.35;;
66761;SDS011;53672;48.176;16.338;2022-08-19T11:21:53;15.00;;;5.90;;
66761;SDS011;53672;48.176;16.338;2022-08-19T11:27:00;14.20;;;5.83;;
66761;SDS011;53672;48.176;16.338;2022-08-19T11:32:03;13.82;;;6.65;;
66761;SDS011;53672;48.176;16.338;2022-08-19T11:37:05;13.87;;;5.07;;
66761;SDS011;53672;48.176;16.338;2022-08-19T11:42:07;11.65;;;3.70;;
66761;SDS011;53672;48.176;16.338;2022-08-19T11:47:08;11.40;;;3.80;;
66761;SDS011;53672;48.176;16.338;2022-08-19T11:52:08;15.03;;;3.30;;
66761;SDS011;53672;48.176;16.338;2022-08-19T11:57:10;14.33;;;3.67;;
66761;SDS011;53672;48.176;16.338;2022-08-19T12:02:10;15.85;;;4.07;;
66761;SDS011;53672;48.176;16.338;2022-08-19T12:07:11;15.77;;;4.07;;
66761;SDS011;53672;48.176;16.338;2022-08-19T12:12:13;17.60;;;5.23;;
66761;SDS011;53672;48.176;16.338;2022-08-19T12:17:13;14.52;;;4.45;;
66761;SDS011;53672;48.176;16.338;2022-08-19T12:22:13;17.67;;;4.97;;
66761;SDS011;53672;48.176;16.338;2022-08-19T12:27:16;15.87;;;4.33;;
66761;SDS011;53672;48.176;16.338;2022-08-19T12:32:16;13.90;;;4.47;;
66761;SDS011;53672;48.176;16.338;2022-08-19T12:37:17;15.37;;;5.30;;
66761;SDS011;53672;48.176;16.338;2022-08-19T12:42:18;18.53;;;5.00;;
66761;SDS011;53672;48.176;16.338;2022-08-19T12:47:19;11.35;;;4.97;;
66761;SDS011;53672;48.176;16.338;2022-08-19T12:52:19;14.65;;;4.78;;
66761;SDS011;53672;48.176;16.338;2022-08-19T12:57:23;11.07;;;4.63;;
66761;SDS011;53672;48.176;16.338;2022-08-19T13:02:24;13.77;;;5.07;;
66761;SDS011;53672;48.176;16.338;2022-08-19T13:07:25;15.23;;;4.90;;
66761;SDS011;53672;48.176;16.338;2022-08-19T13:12:27;9.03;;;4.00;;
66761;SDS011;53672;48.176;16.338;2022-08-19T13:17:28;14.13;;;4.60;;
66761;SDS011;53672;48.176;16.338;2022-08-19T13:22:28;15.60;;;4.83;;
66761;SDS011;53672;48.176;16.338;2022-08-19T13:27:30;14.23;;;4.67;;
66761;SDS011;53672;48.176;16.338;2022-08-19T13:32:31;15.00;;;4.85;;
66761;SDS011;53672;48.176;16.338;2022-08-19T13:37:31;12.90;;;5.00;;
66761;SDS011;53672;48.176;16.338;2022-08-19T13:42:33;12.27;;;4.30;;
66761;SDS011;53672;48.176;16.338;2022-08-19T13:47:34;12.13;;;4.53;;
66761;SDS011;53672;48.176;16.338;2022-08-19T13:52:35;12.20;;;4.70;;
66761;SDS011;53672;48.176;16.338;2022-08-19T13:57:37;14.27;;;4.40;;
66761;SDS011;53672;48.176;16.338;2022-08-19T14:02:38;16.35;;;4.22;;
66761;SDS011;53672;48.176;16.338;2022-08-19T14:07:39;11.17;;;4.27;;
66761;SDS011;53672;48.176;16.338;2022-08-19T14:12:41;10.63;;;4.60;;
66761;SDS011;53672;48.176;16.338;2022-08-19T14:17:43;15.65;;;4.53;;
66761;SDS011;53672;48.176;16.338;2022-08-19T14:22:46;13.00;;;4.50;;
66761;SDS011;53672;48.176;16.338;2022-08-19T14:27:49;14.80;;;4.88;;
66761;SDS011;53672;48.176;16.338;2022-08-19T14:32:50;13.23;;;4.63;;
66761;SDS011;53672;48.176;16.338;2022-08-19T14:37:50;10.03;;;4.53;;
66761;SDS011;53672;48.176;16.338;2022-08-19T14:42:53;10.03;;;4.07;;
66761;SDS011;53672;48.176;16.338;2022-08-19T14:47:54;11.55;;;3.85;;
66761;SDS011;53672;48.176;16.338;2022-08-19T14:52:58;9.50;;;3.93;;
66761;SDS011;53672;48.176;16.338;2022-08-19T14:58:00;11.20;;;3.60;;
66761;SDS011;53672;48.176;16.338;2022-08-19T15:03:01;11.20;;;3.57;;
66761;SDS011;53672;48.176;16.338;2022-08-19T15:08:02;10.57;;;3.20;;
66761;SDS011;53672;48.176;16.338;2022-08-19T15:13:05;8.43;;;2.92;;
66761;SDS011;53672;48.176;16.338;2022-08-19T15:18:05;9.15;;;3.60;;
66761;SDS011;53672;48.176;16.338;2022-08-19T15:23:05;9.53;;;3.40;;
66761;SDS011;53672;48.176;16.338;2022-08-19T15:28:07;9.13;;;3.23;;
66761;SDS011;53672;48.176;16.338;2022-08-19T15:33:09;9.57;;;3.25;;
66761;SDS011;53672;48.176;16.338;2022-08-19T15:38:10;11.40;;;3.50;;
66761;SDS011;53672;48.176;16.338;2022-08-19T15:43:12;12.67;;;3.43;;
66761;SDS011;53672;48.176;16.338;2022-08-19T15:48:12;10.02;;;2.80;;
66761;SDS011;53672;48.176;16.338;2022-08-19T15:53:13;12.03;;;3.10;;
66761;SDS011;53672;48.176;16.338;2022-08-19T15:58:15;8.80;;;3.33;;
66761;SDS011;53672;48.176;16.338;2022-08-19T16:03:15;8.52;;;2.72;;
66761;SDS011;53672;48.176;16.338;2022-08-19T16:08:16;11.50;;;2.43;;
66761;SDS011;53672;48.176;16.338;2022-08-19T16:13:18;10.63;;;2.30;;
66761;SDS011;53672;48.176;16.338;2022-08-19T16:18:18;9.70;;;2.78;;
66761;SDS011;53672;48.176;16.338;2022-08-19T16:23:18;8.97;;;3.07;;
66761;SDS011;53672;48.176;16.338;2022-08-19T16:28:20;10.17;;;2.30;;
66761;SDS011;53672;48.176;16.338;2022-08-19T16:33:21;11.17;;;2.80;;
66761;SDS011;53672;48.176;16.338;2022-08-19T16:38:21;10.32;;;2.70;;
66761;SDS011;53672;48.176;16.338;2022-08-19T16:43:23;12.80;;;3.45;;
66761;SDS011;53672;48.176;16.338;2022-08-19T16:48:24;8.35;;;3.08;;
66761;SDS011;53672;48.176;16.338;2022-08-19T16:53:26;10.43;;;2.75;;
66761;SDS011;53672;48.176;16.338;2022-08-19T16:58:29;8.30;;;2.73;;
66761;SDS011;53672;48.176;16.338;2022-08-19T17:03:30;12.55;;;2.78;;
66761;SDS011;53672;48.176;16.338;2022-08-19T17:08:31;11.03;;;3.00;;
66761;SDS011;53672;48.176;16.338;2022-08-19T17:13:33;11.63;;;2.97;;
66761;SDS011;53672;48.176;16.338;2022-08-19T17:18:34;8.93;;;3.00;;
66761;SDS011;53672;48.176;16.338;2022-08-19T17:23:34;9.70;;;2.63;;
66761;SDS011;53672;48.176;16.338;2022-08-19T17:28:36;9.93;;;2.70;;
66761;SDS011;53672;48.176;16.338;2022-08-19T17:33:37;10.10;;;2.63;;
66761;SDS011;53672;48.176;16.338;2022-08-19T17:38:37;10.63;;;3.20;;
66761;SDS011;53672;48.176;16.338;2022-08-19T17:43:39;7.47;;;2.50;;
66761;SDS011;53672;48.176;16.338;2022-08-19T17:48:40;11.18;;;2.50;;
66761;SDS011;53672;48.176;16.338;2022-08-19T17:53:40;12.53;;;2.83;;
66761;SDS011;53672;48.176;16.338;2022-08-19T17:58:42;10.82;;;2.72;;
66761;SDS011;53672;48.176;16.338;2022-08-19T18:03:43;11.60;;;3.00;;
66761;SDS011;53672;48.176;16.338;2022-08-19T18:08:43;14.37;;;2.90;;
66761;SDS011;53672;48.176;16.338;2022-08-19T18:13:46;9.38;;;2.92;;
66761;SDS011;53672;48.176;16.338;2022-08-19T18:18:47;14.33;;;3.47;;
66761;SDS011;53672;48.176;16.338;2022-08-19T18:23:47;10.68;;;3.65;;
66761;SDS011;53672;48.176;16.338;2022-08-19T18:28:49;12.70;;;3.77;;
66761;SDS011;53672;48.176;16.338;2022-08-19T18:33:50;11.27;;;4.03;;
66761;SDS011;53672;48.176;16.338;2022-08-19T18:38:50;11.83;;;3.63;;
66761;SDS011;53672;48.176;16.338;2022-08-19T18:43:52;16.07;;;3.53;;
66761;SDS011;53672;48.176;16.338;2022-08-19T18:48:54;12.88;;;3.45;;
66761;SDS011;53672;48.176;16.338;2022-08-19T18:53:55;12.17;;;3.53;;
66761;SDS011;53672;48.176;16.338;2022-08-19T18:58:57;12.02;;;3.22;;
66761;SDS011;53672;48.176;16.338;2022-08-19T19:03:59;13.85;;;3.22;;
66761;SDS011;53672;48.176;16.338;2022-08-19T19:09:01;10.85;;;3.30;;
66761;SDS011;53672;48.176;16.338;2022-08-19T19:14:04;11.13;;;3.40;;
66761;SDS011;53672;48.176;16.338;2022-08-19T19:19:05;10.52;;;3.22;;
66761;SDS011;53672;48.176;16.338;2022-08-19T19:24:06;11.47;;;4.00;;
66761;SDS011;53672;48.176;16.338;2022-08-19T19:29:08;11.93;;;3.43;;
66761;SDS011;53672;48.176;16.338;2022-08-19T19:34:09;13.48;;;4.07;;
66761;SDS011;53672;48.176;16.338;2022-08-19T19:39:11;13.13;;;3.38;;
66761;SDS011;53672;48.176;16.338;2022-08-19T19:44:13;13.37;;;3.73;;
66761;SDS011;53672;48.176;16.338;2022-08-19T19:49:13;14.47;;;3.60;;
66761;SDS011;53672;48.176;16.338;2022-08-19T19:54:14;14.38;;;3.80;;
66761;SDS011;53672;48.176;16.338;2022-08-19T19:59:16;13.15;;;3.30;;
66761;SDS011;53672;48.176;16.338;2022-08-19T20:04:17;15.40;;;3.67;;
66761;SDS011;53672;48.176;16.338;2022-08-19T20:09:17;12.80;;;3.63;;
66761;SDS011;53672;48.176;16.338;2022-08-19T20:14:21;12.55;;;3.47;;
66761;SDS011;53672;48.176;16.338;2022-08-19T20:19:25;17.67;;;3.85;;
66761;SDS011;53672;48.176;16.338;2022-08-19T20:24:27;16.98;;;4.18;;
66761;SDS011;53672;48.176;16.338;2022-08-19T20:29:31;15.98;;;4.00;;
66761;SDS011;53672;48.176;16.338;2022-08-19T20:34:32;12.53;;;4.20;;
66761;SDS011;53672;48.176;16.338;2022-08-19T20:39:32;14.77;;;4.23;;
66761;SDS011;53672;48.176;16.338;2022-08-19T20:44:34;15.93;;;4.80;;
66761;SDS011;53672;48.176;16.338;2022-08-19T20:49:35;14.20;;;4.78;;
66761;SDS011;53672;48.176;16.338;2022-08-19T20:54:35;15.77;;;4.47;;
66761;SDS011;53672;48.176;16.338;2022-08-19T20:59:37;15.60;;;4.37;;
66761;SDS011;53672;48.176;16.338;2022-08-19T21:04:37;14.60;;;4.68;;
66761;SDS011;53672;48.176;16.338;2022-08-19T21:09:38;13.10;;;4.40;;
66761;SDS011;53672;48.176;16.338;2022-08-19T21:14:40;9.80;;;3.83;;
66761;SDS011;53672;48.176;16.338;2022-08-19T21:19:42;10.80;;;4.20;;
66761;SDS011;53672;48.176;16.338;2022-08-19T21:24:42;10.13;;;4.53;;
66761;SDS011;53672;48.176;16.338;2022-08-19T21:29:44;10.33;;;3.67;;
66761;SDS011;53672;48.176;16.338;2022-08-19T21:34:44;12.23;;;3.97;;
66761;SDS011;53672;48.176;16.338;2022-08-19T21:39:45;10.40;;;3.83;;
66761;SDS011;53672;48.176;16.338;2022-08-19T21:44:47;10.37;;;4.03;;
66761;SDS011;53672;48.176;16.338;2022-08-19T21:49:47;9.80;;;3.37;;
66761;SDS011;53672;48.176;16.338;2022-08-19T21:54:48;8.68;;;3.40;;
66761;SDS011;53672;48.176;16.338;2022-08-19T21:59:50;6.90;;;2.83;;
66761;SDS011;53672;48.176;16.338;2022-08-19T22:04:51;7.43;;;2.90;;
66761;SDS011;53672;48.176;16.338;2022-08-19T22:09:52;6.95;;;2.90;;
66761;SDS011;53672;48.176;16.338;2022-08-19T22:14:54;6.17;;;2.80;;
66761;SDS011;53672;48.176;16.338;2022-08-19T22:19:55;9.32;;;3.67;;
66761;SDS011;53672;48.176;16.338;2022-08-19T22:24:59;7.82;;;3.22;;
66761;SDS011;53672;48.176;16.338;2022-08-19T22:30:06;4.83;;;2.47;;
66761;SDS011;53672;48.176;16.338;2022-08-19T22:35:08;6.70;;;2.40;;
66761;SDS011;53672;48.176;16.338;2022-08-19T22:40:09;7.10;;;2.40;;
66761;SDS011;53672;48.176;16.338;2022-08-19T22:45:14;5.25;;;2.60;;
66761;SDS011;53672;48.176;16.338;2022-08-19T22:50:16;5.50;;;2.50;;
66761;SDS011;53672;48.176;16.338;2022-08-19T22:55:16;11.13;;;3.03;;
66761;SDS011;53672;48.176;16.338;2022-08-19T23:00:18;5.23;;;2.60;;
66761;SDS011;53672;48.176;16.338;2022-08-19T23:05:20;6.63;;;3.03;;
66761;SDS011;53672;48.176;16.338;2022-08-19T23:10:22;7.85;;;3.42;;
66761;SDS011;53672;48.176;16.338;2022-08-19T23:15:24;6.43;;;3.80;;
66761;SDS011;53672;48.176;16.338;2022-08-19T23:20:28;6.78;;;3.90;;
66761;SDS011;53672;48.176;16.338;2022-08-19T23:25:31;8.80;;;4.57;;
66761;SDS011;53672;48.176;16.338;2022-08-19T23:30:34;8.18;;;4.22;;
66761;SDS011;53672;48.176;16.338;2022-08-19T23:35:37;6.90;;;4.00;;
66761;SDS011;53672;48.176;16.338;2022-08-19T23:40:38;7.57;;;4.20;;
66761;SDS011;53672;48.176;16.338;2022-08-19T23:45:40;6.60;;;3.97;;
66761;SDS011;53672;48.176;16.338;2022-08-19T23:50:42;9.63;;;4.50;;
66761;SDS011;53672;48.176;16.338;2022-08-19T23:55:44;7.72;;;3.85;;
